createdAt,value
2018-01-26T00:00:20.502Z,17.10
2018-01-26T00:00:44.055Z,14.82
2018-01-26T00:01:07.813Z,16.25
2018-01-26T00:01:31.329Z,17.27
2018-01-26T00:01:55.086Z,18.52
2018-01-26T00:02:18.877Z,14.13
2018-01-26T00:02:42.611Z,13.25
2018-01-26T00:03:06.643Z,13.07
2018-01-26T00:03:30.659Z,14.77
2018-01-26T00:03:54.685Z,16.52
2018-01-26T00:04:18.463Z,18.98
2018-01-26T00:04:41.994Z,19.33
2018-01-26T00:05:05.720Z,18.92
2018-01-26T00:05:29.459Z,16.80
2018-01-26T00:05:52.903Z,15.20
2018-01-26T00:06:16.659Z,15.48
2018-01-26T00:06:40.409Z,13.65
2018-01-26T00:07:03.861Z,14.60
2018-01-26T00:07:27.613Z,17.80
2018-01-26T00:07:51.376Z,18.67
2018-01-26T00:08:15.396Z,16.37
2018-01-26T00:08:39.415Z,14.23
2018-01-26T00:09:03.079Z,13.77
2018-01-26T00:09:26.809Z,13.15
2018-01-26T00:09:50.586Z,12.13
2018-01-26T00:10:14.317Z,12.95
2018-01-26T00:10:38.360Z,12.37
2018-01-26T00:11:02.384Z,13.15
2018-01-26T00:11:26.151Z,13.10
2018-01-26T00:11:49.902Z,12.02
2018-01-26T00:12:13.639Z,10.88
2018-01-26T00:12:37.418Z,13.85
2018-01-26T00:13:01.215Z,16.50
2018-01-26T00:13:25.257Z,19.85
2018-01-26T00:13:48.997Z,19.42
2018-01-26T00:14:12.747Z,15.75
2018-01-26T00:14:36.495Z,13.62
2018-01-26T00:15:00.233Z,12.50
2018-01-26T00:15:24.039Z,13.07
2018-01-26T00:15:48.107Z,12.95
2018-01-26T00:16:11.864Z,11.77
2018-01-26T00:16:35.616Z,13.30
2018-01-26T00:16:59.347Z,15.80
2018-01-26T00:17:23.090Z,16.90
2018-01-26T00:17:46.817Z,17.95
2018-01-26T00:18:10.267Z,17.30
2018-01-26T00:18:33.997Z,17.35
2018-01-26T00:18:57.774Z,16.98
2018-01-26T00:19:21.301Z,13.90
2018-01-26T00:19:45.043Z,12.90
2018-01-26T00:20:08.773Z,13.43
2018-01-26T00:20:32.826Z,14.73
2018-01-26T00:20:56.832Z,14.82
2018-01-26T00:21:20.572Z,13.88
2018-01-26T00:21:44.322Z,11.25
2018-01-26T00:22:07.909Z,11.00
2018-01-26T00:22:31.708Z,12.70
2018-01-26T00:22:55.734Z,14.50
2018-01-26T00:23:19.495Z,13.45
2018-01-26T00:23:42.949Z,12.25
2018-01-26T00:24:06.721Z,14.15
2018-01-26T00:24:30.549Z,15.50
2018-01-26T00:24:54.559Z,15.32
2018-01-26T00:25:18.566Z,11.70
2018-01-26T00:25:42.238Z,13.27
2018-01-26T00:26:06.307Z,15.50
2018-01-26T00:26:29.823Z,13.93
2018-01-26T00:26:53.615Z,12.43
2018-01-26T00:27:17.415Z,14.45
2018-01-26T00:27:41.429Z,13.82
2018-01-26T00:28:05.185Z,14.13
2018-01-26T00:28:28.927Z,13.50
2018-01-26T00:28:52.670Z,13.62
2018-01-26T00:29:16.424Z,13.70
2018-01-26T00:29:40.259Z,14.00
2018-01-26T00:30:03.967Z,13.68
2018-01-26T00:30:27.703Z,14.13
2018-01-26T00:30:51.460Z,15.15
2018-01-26T00:31:14.830Z,14.85
2018-01-26T00:31:38.591Z,16.55
2018-01-26T00:32:02.345Z,16.10
2018-01-26T00:32:26.092Z,15.88
2018-01-26T00:32:50.127Z,14.90
2018-01-26T00:33:13.867Z,14.05
2018-01-26T00:33:37.314Z,13.75
2018-01-26T00:34:01.153Z,13.05
2018-01-26T00:34:24.883Z,13.48
2018-01-26T00:34:48.911Z,11.93
2018-01-26T00:35:12.952Z,13.27
2018-01-26T00:35:36.977Z,12.68
2018-01-26T00:36:00.734Z,12.65
2018-01-26T00:36:24.194Z,13.60
2018-01-26T00:36:47.931Z,13.57
2018-01-26T00:37:11.698Z,13.43
2018-01-26T00:37:35.204Z,14.18
2018-01-26T00:37:58.941Z,14.48
2018-01-26T00:38:22.703Z,14.30
2018-01-26T00:38:46.721Z,14.23
2018-01-26T00:39:10.735Z,14.30
2018-01-26T00:39:34.202Z,15.20
2018-01-26T00:39:57.946Z,13.65
2018-01-26T00:40:21.673Z,12.32
2018-01-26T00:40:45.699Z,14.35
2018-01-26T00:41:09.456Z,14.18
2018-01-26T00:41:32.901Z,14.98
2018-01-26T00:41:56.627Z,14.65
2018-01-26T00:42:20.457Z,15.35
2018-01-26T00:42:44.480Z,15.15
2018-01-26T00:43:08.491Z,14.68
2018-01-26T00:43:32.504Z,14.65
2018-01-26T00:43:55.950Z,14.70
2018-01-26T00:44:19.700Z,13.27
2018-01-26T00:44:43.429Z,12.55
2018-01-26T00:45:06.928Z,14.13
2018-01-26T00:45:30.663Z,15.80
2018-01-26T00:45:54.400Z,16.65
2018-01-26T00:46:18.155Z,11.48
2018-01-26T00:46:41.643Z,15.25
2018-01-26T00:47:05.399Z,17.65
2018-01-26T00:47:29.164Z,15.90
2018-01-26T00:47:53.211Z,12.43
2018-01-26T00:48:17.243Z,13.90
2018-01-26T00:48:40.979Z,15.05
2018-01-26T00:49:04.753Z,16.35
2018-01-26T00:49:28.554Z,14.10
2018-01-26T00:49:52.319Z,14.70
2018-01-26T00:50:16.058Z,16.48
2018-01-26T00:50:40.107Z,15.82
2018-01-26T00:51:03.855Z,13.05
2018-01-26T00:51:27.606Z,13.77
2018-01-26T00:51:51.351Z,14.15
2018-01-26T00:52:15.075Z,14.10
2018-01-26T00:52:38.831Z,12.13
2018-01-26T00:53:02.287Z,13.27
2018-01-26T00:53:26.051Z,12.50
2018-01-26T00:53:49.878Z,14.52
2018-01-26T00:54:13.901Z,18.92
2018-01-26T00:54:37.357Z,17.87
2018-01-26T00:55:01.088Z,13.20
2018-01-26T00:55:24.903Z,15.23
2018-01-26T00:55:48.663Z,15.45
2018-01-26T00:56:12.116Z,15.15
2018-01-26T00:56:35.858Z,14.90
2018-01-26T00:56:59.603Z,11.32
2018-01-26T00:57:23.619Z,11.82
2018-01-26T00:57:47.656Z,15.43
2018-01-26T00:58:11.681Z,17.80
2018-01-26T00:58:35.437Z,16.10
2018-01-26T00:58:59.192Z,13.02
2018-01-26T00:59:22.944Z,15.70
2018-01-26T00:59:46.696Z,13.45
2018-01-26T01:00:10.095Z,9.65
2018-01-26T01:00:33.824Z,10.65
2018-01-26T01:00:57.595Z,11.40
2018-01-26T01:01:21.359Z,12.13
2018-01-26T01:01:45.427Z,10.60
2018-01-26T01:02:08.885Z,11.45
2018-01-26T01:02:32.624Z,12.55
2018-01-26T01:02:56.412Z,15.65
2018-01-26T01:03:20.191Z,16.85
2018-01-26T01:03:43.642Z,14.25
2018-01-26T01:04:07.387Z,13.43
2018-01-26T01:04:31.127Z,13.20
2018-01-26T01:04:54.585Z,16.30
2018-01-26T01:05:18.327Z,13.30
2018-01-26T01:05:42.095Z,14.82
2018-01-26T01:06:05.623Z,12.65
2018-01-26T01:06:29.368Z,12.13
2018-01-26T01:06:53.102Z,12.32
2018-01-26T01:07:17.103Z,13.30
2018-01-26T01:07:41.125Z,16.77
2018-01-26T01:08:05.165Z,13.40
2018-01-26T01:08:28.928Z,11.38
2018-01-26T01:08:52.676Z,12.52
2018-01-26T01:09:16.400Z,13.57
2018-01-26T01:09:40.153Z,12.70
2018-01-26T01:10:03.921Z,13.77
2018-01-26T01:10:27.368Z,16.17
2018-01-26T01:10:51.112Z,12.82
2018-01-26T01:11:14.969Z,12.00
2018-01-26T01:11:38.966Z,12.35
2018-01-26T01:12:02.434Z,12.07
2018-01-26T01:12:26.152Z,11.57
2018-01-26T01:12:49.516Z,12.75
2018-01-26T01:13:13.267Z,13.40
2018-01-26T01:13:37.015Z,11.55
2018-01-26T01:14:00.756Z,11.15
2018-01-26T01:14:24.766Z,13.00
2018-01-26T01:14:48.791Z,15.10
2018-01-26T01:15:12.854Z,18.90
2018-01-26T01:15:36.745Z,18.58
2018-01-26T01:16:00.764Z,14.90
2018-01-26T01:16:24.220Z,11.07
2018-01-26T01:16:47.954Z,10.88
2018-01-26T01:17:11.691Z,12.98
2018-01-26T01:17:35.724Z,15.60
2018-01-26T01:17:59.481Z,15.32
2018-01-26T01:18:23.234Z,16.40
2018-01-26T01:18:46.987Z,18.05
2018-01-26T01:19:10.716Z,17.20
2018-01-26T01:19:34.454Z,15.70
2018-01-26T01:19:58.485Z,11.95
2018-01-26T01:20:22.481Z,12.35
2018-01-26T01:20:46.483Z,11.93
2018-01-26T01:21:10.501Z,15.32
2018-01-26T01:21:34.539Z,16.45
2018-01-26T01:21:58.333Z,18.58
2018-01-26T01:22:21.797Z,17.27
2018-01-26T01:22:45.536Z,13.02
2018-01-26T01:23:09.310Z,11.70
2018-01-26T01:23:32.774Z,11.15
2018-01-26T01:23:56.517Z,13.10
2018-01-26T01:24:20.261Z,11.73
2018-01-26T01:24:44.297Z,12.05
2018-01-26T01:25:08.312Z,13.30
2018-01-26T01:25:32.328Z,15.30
2018-01-26T01:25:55.777Z,14.83
2018-01-26T01:26:19.514Z,14.75
2018-01-26T01:26:43.237Z,14.27
2018-01-26T01:27:07.243Z,13.35
2018-01-26T01:27:30.695Z,14.00
2018-01-26T01:27:54.439Z,14.77
2018-01-26T01:28:18.202Z,15.90
2018-01-26T01:28:41.675Z,12.57
2018-01-26T01:29:05.320Z,13.00
2018-01-26T01:29:29.115Z,12.40
2018-01-26T01:29:53.125Z,12.77
2018-01-26T01:30:16.578Z,12.57
2018-01-26T01:30:40.375Z,10.60
2018-01-26T01:31:04.109Z,13.05
2018-01-26T01:31:27.907Z,12.85
2018-01-26T01:31:51.962Z,12.98
2018-01-26T01:32:16.029Z,11.52
2018-01-26T01:32:39.771Z,11.55
2018-01-26T01:33:03.499Z,12.68
2018-01-26T01:33:27.230Z,15.23
2018-01-26T01:33:50.987Z,17.17
2018-01-26T01:34:14.401Z,14.07
2018-01-26T01:34:38.131Z,13.60
2018-01-26T01:35:01.865Z,14.23
2018-01-26T01:35:25.883Z,13.95
2018-01-26T01:35:49.643Z,13.73
2018-01-26T01:36:13.091Z,17.08
2018-01-26T01:36:36.825Z,15.63
2018-01-26T01:37:00.592Z,12.37
2018-01-26T01:37:24.045Z,10.55
2018-01-26T01:37:47.803Z,10.07
2018-01-26T01:38:11.608Z,13.43
2018-01-26T01:38:35.617Z,14.25
2018-01-26T01:38:59.638Z,12.80
2018-01-26T01:39:23.659Z,15.43
2018-01-26T01:39:47.667Z,15.93
2018-01-26T01:40:11.419Z,14.63
2018-01-26T01:40:35.198Z,14.13
2018-01-26T01:40:58.933Z,13.57
2018-01-26T01:41:22.677Z,13.23
2018-01-26T01:41:46.417Z,16.05
2018-01-26T01:42:09.858Z,17.95
2018-01-26T01:42:33.604Z,18.50
2018-01-26T01:42:57.342Z,14.10
2018-01-26T01:43:20.824Z,15.30
2018-01-26T01:43:44.748Z,14.75
2018-01-26T01:44:08.508Z,15.30
2018-01-26T01:44:32.245Z,12.95
2018-01-26T01:44:55.683Z,15.23
2018-01-26T01:45:19.417Z,15.70
2018-01-26T01:45:43.157Z,18.02
2018-01-26T01:46:06.912Z,12.80
2018-01-26T01:46:30.649Z,11.38
2018-01-26T01:46:54.393Z,11.60
2018-01-26T01:47:17.852Z,14.85
2018-01-26T01:47:41.739Z,12.93
2018-01-26T01:48:05.494Z,14.32
2018-01-26T01:48:29.239Z,13.68
2018-01-26T01:49:04.194Z,16.33
2018-01-26T01:49:27.663Z,14.10
2018-01-26T01:49:51.413Z,13.93
2018-01-26T01:50:15.139Z,14.85
2018-01-26T01:50:38.604Z,16.63
2018-01-26T01:51:02.335Z,14.52
2018-01-26T01:51:26.078Z,16.77
2018-01-26T01:51:49.532Z,17.80
2018-01-26T01:52:13.260Z,16.20
2018-01-26T01:52:36.996Z,15.25
2018-01-26T01:53:01.021Z,14.45
2018-01-26T01:53:24.778Z,13.25
2018-01-26T01:53:48.213Z,15.27
2018-01-26T01:54:11.952Z,14.73
2018-01-26T01:54:35.715Z,16.55
2018-01-26T01:54:59.453Z,13.43
2018-01-26T01:55:23.186Z,14.87
2018-01-26T01:55:46.595Z,16.62
2018-01-26T01:56:10.326Z,21.08
2018-01-26T01:56:34.051Z,18.75
2018-01-26T01:56:57.803Z,17.25
2018-01-26T01:57:21.252Z,15.83
2018-01-26T01:57:44.985Z,14.05
2018-01-26T01:58:08.723Z,14.45
2018-01-26T01:58:32.728Z,12.52
2018-01-26T01:58:56.816Z,12.55
2018-01-26T01:59:20.568Z,14.55
2018-01-26T01:59:44.045Z,18.20
2018-01-26T02:00:07.798Z,16.33
2018-01-26T02:00:31.421Z,17.05
2018-01-26T02:00:55.165Z,16.85
2018-01-26T02:01:18.887Z,18.02
2018-01-26T02:01:42.655Z,15.70
2018-01-26T02:02:06.443Z,15.45
2018-01-26T02:02:30.705Z,15.98
2018-01-26T02:02:54.502Z,15.50
2018-01-26T02:03:18.585Z,14.63
2018-01-26T02:03:42.331Z,17.70
2018-01-26T02:04:05.781Z,21.37
2018-01-26T02:04:29.527Z,21.67
2018-01-26T02:04:53.299Z,20.02
2018-01-26T02:05:16.909Z,14.27
2018-01-26T02:05:41.129Z,14.63
2018-01-26T02:06:05.050Z,15.93
2018-01-26T02:06:28.950Z,16.23
2018-01-26T02:06:52.557Z,21.00
2018-01-26T02:07:16.327Z,16.95
2018-01-26T02:07:40.098Z,16.67
2018-01-26T02:08:03.537Z,15.15
2018-01-26T02:08:27.267Z,15.70
2018-01-26T02:08:50.655Z,14.82
2018-01-26T02:09:14.404Z,13.23
2018-01-26T02:09:38.131Z,15.25
2018-01-26T02:10:02.175Z,16.33
2018-01-26T02:10:25.951Z,17.12
2018-01-26T02:10:49.462Z,16.80
2018-01-26T02:11:13.258Z,18.00
2018-01-26T02:11:36.987Z,16.67
2018-01-26T02:12:01.016Z,18.23
2018-01-26T02:12:25.087Z,15.93
2018-01-26T02:12:48.837Z,17.75
2018-01-26T02:13:12.296Z,17.55
2018-01-26T02:13:36.044Z,14.25
2018-01-26T02:13:59.784Z,13.65
2018-01-26T02:14:23.234Z,13.57
2018-01-26T02:14:46.963Z,15.82
2018-01-26T02:15:10.787Z,14.95
2018-01-26T02:15:34.826Z,17.70
2018-01-26T02:15:58.828Z,14.57
2018-01-26T02:16:22.850Z,16.95
2018-01-26T02:16:46.291Z,16.60
2018-01-26T02:17:10.067Z,13.95
2018-01-26T02:17:33.793Z,13.98
2018-01-26T02:17:57.255Z,17.23
2018-01-26T02:18:20.985Z,15.82
2018-01-26T02:18:44.706Z,16.70
2018-01-26T02:19:08.736Z,16.48
2018-01-26T02:19:32.184Z,19.23
2018-01-26T02:19:55.568Z,18.87
2018-01-26T02:20:18.353Z,18.40
2018-01-26T02:20:42.089Z,18.48
2018-01-26T02:21:05.139Z,14.57
2018-01-26T02:21:28.931Z,17.80
2018-01-26T02:21:52.686Z,15.48
2018-01-26T02:22:16.441Z,13.32
2018-01-26T02:22:39.886Z,12.60
2018-01-26T02:23:03.614Z,18.48
2018-01-26T02:23:27.370Z,21.58
2018-01-26T02:24:07.683Z,21.05
2018-01-26T02:24:47.821Z,14.00
2018-01-26T02:25:28.237Z,14.35
2018-01-26T02:25:51.683Z,17.30
2018-01-26T02:26:15.451Z,17.67
2018-01-26T02:26:39.194Z,15.80
2018-01-26T02:27:02.654Z,16.12
2018-01-26T02:27:26.390Z,16.37
2018-01-26T02:27:50.123Z,15.10
2018-01-26T02:28:13.575Z,13.32
2018-01-26T02:28:37.307Z,12.63
2018-01-26T02:29:01.043Z,16.23
2018-01-26T02:29:24.772Z,18.48
2018-01-26T02:29:48.531Z,22.50
2018-01-26T02:30:12.274Z,18.15
2018-01-26T02:30:36.046Z,16.92
2018-01-26T02:30:59.491Z,14.80
2018-01-26T02:31:23.224Z,15.20
2018-01-26T02:31:46.982Z,19.45
2018-01-26T02:32:11.016Z,17.17
2018-01-26T02:32:35.043Z,16.00
2018-01-26T02:32:59.058Z,16.75
2018-01-26T02:33:23.080Z,21.05
2018-01-26T02:33:46.826Z,21.12
2018-01-26T02:34:10.271Z,19.40
2018-01-26T02:34:34.039Z,18.12
2018-01-26T02:34:57.812Z,15.95
2018-01-26T02:35:21.277Z,18.83
2018-01-26T02:35:45.029Z,18.90
2018-01-26T02:36:08.771Z,20.95
2018-01-26T02:36:32.802Z,20.10
2018-01-26T02:36:56.818Z,18.00
2018-01-26T02:37:20.844Z,19.55
2018-01-26T02:37:47.055Z,16.60
2018-01-26T02:38:10.824Z,17.45
2018-01-26T02:38:34.563Z,15.88
2018-01-26T02:38:58.113Z,16.20
2018-01-26T02:39:21.854Z,17.80
2018-01-26T02:39:45.595Z,21.73
2018-01-26T02:40:09.544Z,20.45
2018-01-26T02:40:32.979Z,20.83
2018-01-26T02:40:56.725Z,20.42
2018-01-26T02:41:20.468Z,17.05
2018-01-26T02:41:44.483Z,20.10
2018-01-26T02:42:08.507Z,15.82
2018-01-26T02:42:32.542Z,17.12
2018-01-26T02:42:55.995Z,17.57
2018-01-26T02:43:19.725Z,16.62
2018-01-26T02:43:43.512Z,22.27
2018-01-26T02:44:07.265Z,29.30
2018-01-26T02:44:30.728Z,24.75
2018-01-26T02:44:54.458Z,20.12
2018-01-26T02:45:18.194Z,17.48
2018-01-26T02:45:41.664Z,14.30
2018-01-26T02:46:05.428Z,14.00
2018-01-26T02:46:29.175Z,20.10
2018-01-26T02:46:52.623Z,27.15
2018-01-26T02:47:16.358Z,26.52
2018-01-26T02:47:40.123Z,17.85
2018-01-26T02:48:04.172Z,13.88
2018-01-26T02:48:28.179Z,16.85
2018-01-26T02:48:51.629Z,18.10
2018-01-26T02:49:15.382Z,18.48
2018-01-26T02:49:39.146Z,21.20
2018-01-26T02:50:02.890Z,19.77
2018-01-26T02:50:26.684Z,17.33
2018-01-26T02:50:50.428Z,17.02
2018-01-26T02:51:14.174Z,17.73
2018-01-26T02:51:37.929Z,16.65
2018-01-26T02:52:01.958Z,17.30
2018-01-26T02:52:25.483Z,16.23
2018-01-26T02:52:49.215Z,19.15
2018-01-26T02:53:12.940Z,19.33
2018-01-26T02:53:36.736Z,16.98
2018-01-26T02:54:00.766Z,20.23
2018-01-26T02:54:24.799Z,20.73
2018-01-26T02:54:48.249Z,21.70
2018-01-26T02:55:11.982Z,20.70
2018-01-26T02:55:35.708Z,19.27
2018-01-26T02:55:59.721Z,17.70
2018-01-26T02:56:23.539Z,17.87
2018-01-26T02:56:47.555Z,17.15
2018-01-26T02:57:11.571Z,16.12
2018-01-26T02:57:35.588Z,21.25
2018-01-26T02:57:58.752Z,23.10
2018-01-26T02:58:22.506Z,21.33
2018-01-26T02:58:46.520Z,20.62
2018-01-26T02:59:09.956Z,17.30
2018-01-26T02:59:33.687Z,19.92
2018-01-26T02:59:57.435Z,22.42
2018-01-26T03:00:21.475Z,23.25
2018-01-26T03:00:45.241Z,18.55
2018-01-26T03:01:08.679Z,16.33
2018-01-26T03:01:32.464Z,20.85
2018-01-26T03:01:56.214Z,22.37
2018-01-26T03:02:20.303Z,16.35
2018-01-26T03:02:43.752Z,15.53
2018-01-26T03:03:07.491Z,15.93
2018-01-26T03:03:31.216Z,20.45
2018-01-26T03:03:54.653Z,17.50
2018-01-26T03:04:18.449Z,14.95
2018-01-26T03:04:42.201Z,17.05
2018-01-26T03:05:05.942Z,18.87
2018-01-26T03:05:29.431Z,20.33
2018-01-26T03:05:53.161Z,21.17
2018-01-26T03:06:16.887Z,20.23
2018-01-26T03:06:40.347Z,18.40
2018-01-26T03:07:04.115Z,15.32
2018-01-26T03:07:27.851Z,19.02
2018-01-26T03:07:51.880Z,23.40
2018-01-26T03:08:15.909Z,20.60
2018-01-26T03:08:39.462Z,18.00
2018-01-26T03:09:03.199Z,21.15
2018-01-26T03:09:26.954Z,23.50
2018-01-26T03:09:50.735Z,23.62
2018-01-26T03:10:14.748Z,19.10
2018-01-26T03:10:38.767Z,17.95
2018-01-26T03:11:02.193Z,17.90
2018-01-26T03:11:25.970Z,16.45
2018-01-26T03:11:49.738Z,14.25
2018-01-26T03:12:13.511Z,15.30
2018-01-26T03:12:37.527Z,20.62
2018-01-26T03:13:01.548Z,20.15
2018-01-26T03:13:25.564Z,22.35
2018-01-26T03:13:49.003Z,18.63
2018-01-26T03:14:12.740Z,22.10
2018-01-26T03:14:36.460Z,21.12
2018-01-26T03:15:00.476Z,23.20
2018-01-26T03:15:24.215Z,24.55
2018-01-26T03:15:47.942Z,26.30
2018-01-26T03:16:11.685Z,23.08
2018-01-26T03:16:35.426Z,21.70
2018-01-26T03:16:59.181Z,24.08
2018-01-26T03:17:22.623Z,22.00
2018-01-26T03:17:46.363Z,18.25
2018-01-26T03:18:10.115Z,18.00
2018-01-26T03:18:34.128Z,17.23
2018-01-26T03:18:58.139Z,15.40
2018-01-26T03:19:22.150Z,18.27
2018-01-26T03:19:46.174Z,18.12
2018-01-26T03:20:09.632Z,17.67
2018-01-26T03:20:33.381Z,21.27
2018-01-26T03:20:57.140Z,22.00
2018-01-26T03:21:20.883Z,20.75
2018-01-26T03:21:44.327Z,18.80
2018-01-26T03:22:08.080Z,18.65
2018-01-26T03:22:31.811Z,19.45
2018-01-26T03:22:55.322Z,16.58
2018-01-26T03:23:19.077Z,16.80
2018-01-26T03:23:42.868Z,16.30
2018-01-26T03:24:06.922Z,18.20
2018-01-26T03:24:30.662Z,17.12
2018-01-26T03:24:54.108Z,17.25
2018-01-26T03:25:17.851Z,14.32
2018-01-26T03:25:41.594Z,17.80
2018-01-26T03:26:05.046Z,16.67
2018-01-26T03:26:28.797Z,17.87
2018-01-26T03:26:52.585Z,17.30
2018-01-26T03:27:16.644Z,15.02
2018-01-26T03:27:40.651Z,14.10
2018-01-26T03:28:04.418Z,16.00
2018-01-26T03:28:27.687Z,18.85
2018-01-26T03:28:51.430Z,22.13
2018-01-26T03:29:15.455Z,21.37
2018-01-26T03:29:39.467Z,21.50
2018-01-26T03:30:03.177Z,19.95
2018-01-26T03:30:26.902Z,18.48
2018-01-26T03:30:50.640Z,19.10
2018-01-26T03:31:14.394Z,22.23
2018-01-26T03:31:38.156Z,19.98
2018-01-26T03:32:01.602Z,21.60
2018-01-26T03:32:25.399Z,20.17
2018-01-26T03:32:49.163Z,17.27
2018-01-26T03:33:13.179Z,15.40
2018-01-26T03:33:37.190Z,16.50
2018-01-26T03:34:01.227Z,16.40
2018-01-26T03:34:24.992Z,17.10
2018-01-26T03:34:48.453Z,18.48
2018-01-26T03:35:12.185Z,20.73
2018-01-26T03:35:35.965Z,22.10
2018-01-26T03:36:00.008Z,19.08
2018-01-26T03:36:24.016Z,15.85
2018-01-26T03:36:48.047Z,18.08
2018-01-26T03:37:11.802Z,17.62
2018-01-26T03:37:35.261Z,19.52
2018-01-26T03:37:59.010Z,19.70
2018-01-26T03:38:22.761Z,18.12
2018-01-26T03:38:46.207Z,15.57
2018-01-26T03:39:09.944Z,15.60
2018-01-26T03:39:33.691Z,15.25
2018-01-26T03:39:57.711Z,14.85
2018-01-26T03:40:21.724Z,15.95
2018-01-26T03:40:45.751Z,16.45
2018-01-26T03:41:09.507Z,16.35
2018-01-26T03:41:33.237Z,17.20
2018-01-26T03:41:56.958Z,17.40
2018-01-26T03:42:20.703Z,19.08
2018-01-26T03:42:44.499Z,19.40
2018-01-26T03:43:08.514Z,18.95
2018-01-26T03:43:32.595Z,18.27
2018-01-26T03:43:56.477Z,16.60
2018-01-26T03:44:20.541Z,16.37
2018-01-26T03:44:44.093Z,16.60
2018-01-26T03:45:07.859Z,14.93
2018-01-26T03:45:31.611Z,14.35
2018-01-26T03:45:55.347Z,13.77
2018-01-26T03:46:19.365Z,15.68
2018-01-26T03:46:43.395Z,18.80
2018-01-26T03:47:06.843Z,19.60
2018-01-26T03:47:30.564Z,15.80
2018-01-26T03:47:54.307Z,17.23
2018-01-26T03:48:18.318Z,16.60
2018-01-26T03:48:41.748Z,20.03
2018-01-26T03:49:05.475Z,21.20
2018-01-26T03:49:29.215Z,22.65
2018-01-26T03:49:53.232Z,20.15
2018-01-26T03:50:17.313Z,19.35
2018-01-26T03:50:41.072Z,23.23
2018-01-26T03:51:04.151Z,22.30
2018-01-26T03:51:28.170Z,19.58
2018-01-26T03:51:51.605Z,16.47
2018-01-26T03:52:15.146Z,17.23
2018-01-26T03:52:41.578Z,15.87
2018-01-26T03:53:05.143Z,17.85
2018-01-26T03:53:28.907Z,17.25
2018-01-26T03:53:52.363Z,15.00
2018-01-26T03:54:16.109Z,15.52
2018-01-26T03:54:39.872Z,17.58
2018-01-26T03:55:03.303Z,20.55
2018-01-26T03:55:27.035Z,20.45
2018-01-26T03:55:50.779Z,18.20
2018-01-26T03:56:14.588Z,13.75
2018-01-26T03:56:38.341Z,16.20
2018-01-26T03:57:02.088Z,17.83
2018-01-26T03:57:25.824Z,18.05
2018-01-26T03:57:49.839Z,18.80
2018-01-26T03:58:13.868Z,18.37
2018-01-26T03:58:37.880Z,20.48
2018-01-26T03:59:01.899Z,23.90
2018-01-26T03:59:25.637Z,25.92
2018-01-26T03:59:49.388Z,24.80
2018-01-26T04:00:13.119Z,25.23
2018-01-26T04:00:36.498Z,20.20
2018-01-26T04:01:00.285Z,20.77
2018-01-26T04:01:24.027Z,20.23
2018-01-26T04:01:47.759Z,19.95
2018-01-26T04:02:11.518Z,20.40
2018-01-26T04:02:35.235Z,18.65
2018-01-26T04:02:58.956Z,18.27
2018-01-26T04:03:22.724Z,17.37
2018-01-26T04:03:46.466Z,22.60
2018-01-26T04:04:09.894Z,20.27
2018-01-26T04:04:33.630Z,17.05
2018-01-26T04:04:57.074Z,14.70
2018-01-26T04:05:20.795Z,15.15
2018-01-26T04:05:44.551Z,13.62
2018-01-26T04:06:07.979Z,14.73
2018-01-26T04:06:31.710Z,15.90
2018-01-26T04:06:55.464Z,22.10
2018-01-26T04:07:19.552Z,19.90
2018-01-26T04:07:43.272Z,18.37
2018-01-26T04:08:06.764Z,16.90
2018-01-26T04:08:30.557Z,17.77
2018-01-26T04:08:54.286Z,19.20
2018-01-26T04:09:17.973Z,21.75
2018-01-26T04:09:41.739Z,24.37
2018-01-26T04:10:05.492Z,23.85
2018-01-26T04:10:29.218Z,22.00
2018-01-26T04:10:53.253Z,20.98
2018-01-26T04:11:17.271Z,23.80
2018-01-26T04:11:41.279Z,26.30
2018-01-26T04:12:05.032Z,22.92
2018-01-26T04:12:28.788Z,20.25
2018-01-26T04:12:52.507Z,19.27
2018-01-26T04:13:16.247Z,21.95
2018-01-26T04:13:40.012Z,22.30
2018-01-26T04:14:03.716Z,20.00
2018-01-26T04:14:27.432Z,16.65
2018-01-26T04:14:51.160Z,14.82
2018-01-26T04:15:14.917Z,16.15
2018-01-26T04:15:38.429Z,19.85
2018-01-26T04:16:02.163Z,22.27
2018-01-26T04:16:25.972Z,20.10
2018-01-26T04:16:49.979Z,20.05
2018-01-26T04:17:14.079Z,21.23
2018-01-26T04:17:37.964Z,19.55
2018-01-26T04:18:01.988Z,22.02
2018-01-26T04:18:25.743Z,21.08
2018-01-26T04:18:49.503Z,17.10
2018-01-26T04:19:13.288Z,16.80
2018-01-26T04:19:37.016Z,18.10
2018-01-26T04:20:00.809Z,22.58
2018-01-26T04:20:24.841Z,23.27
2018-01-26T04:20:48.929Z,21.40
2018-01-26T04:21:12.674Z,18.80
2018-01-26T04:21:36.119Z,17.20
2018-01-26T04:21:59.871Z,16.62
2018-01-26T04:22:23.606Z,15.73
2018-01-26T04:22:47.039Z,17.05
2018-01-26T04:23:10.767Z,18.05
2018-01-26T04:23:34.517Z,18.60
2018-01-26T04:23:58.003Z,19.42
2018-01-26T04:24:21.750Z,19.95
2018-01-26T04:24:45.511Z,17.77
2018-01-26T04:25:08.957Z,15.00
2018-01-26T04:25:32.698Z,16.62
2018-01-26T04:25:56.441Z,20.15
2018-01-26T04:26:19.888Z,20.33
2018-01-26T04:26:43.653Z,19.60
2018-01-26T04:27:07.416Z,18.20
2018-01-26T04:27:31.440Z,19.83
2018-01-26T04:27:55.440Z,18.75
2018-01-26T04:28:19.470Z,18.87
2018-01-26T04:28:43.213Z,21.33
2018-01-26T04:29:06.975Z,24.45
2018-01-26T04:29:30.528Z,22.55
2018-01-26T04:29:53.911Z,19.35
2018-01-26T04:30:17.449Z,20.30
2018-01-26T04:30:40.920Z,20.80
2018-01-26T04:31:04.648Z,17.87
2018-01-26T04:31:28.393Z,18.25
2018-01-26T04:31:51.833Z,17.87
2018-01-26T04:32:15.608Z,16.58
2018-01-26T04:32:39.376Z,17.37
2018-01-26T04:33:03.116Z,18.17
2018-01-26T04:33:26.844Z,18.98
2018-01-26T04:33:50.571Z,17.98
2018-01-26T04:34:14.409Z,15.93
2018-01-26T04:34:38.139Z,15.25
2018-01-26T04:35:02.176Z,15.50
2018-01-26T04:35:26.184Z,18.52
2018-01-26T04:35:49.624Z,21.73
2018-01-26T04:36:13.398Z,21.23
2018-01-26T04:36:37.136Z,21.90
2018-01-26T04:37:00.907Z,18.62
2018-01-26T04:37:25.318Z,17.62
2018-01-26T04:37:49.298Z,16.15
2018-01-26T04:38:13.032Z,14.63
2018-01-26T04:38:36.495Z,14.67
2018-01-26T04:39:00.262Z,17.50
2018-01-26T04:39:24.024Z,16.98
2018-01-26T04:39:47.817Z,21.05
2018-01-26T04:40:11.833Z,22.67
2018-01-26T04:40:35.848Z,23.62
2018-01-26T04:40:59.859Z,21.87
2018-01-26T04:41:23.306Z,22.13
2018-01-26T04:41:47.063Z,19.40
2018-01-26T04:42:10.825Z,20.37
2018-01-26T04:42:34.556Z,20.77
2018-01-26T04:42:58.283Z,26.58
2018-01-26T04:43:22.019Z,24.15
2018-01-26T04:43:45.735Z,23.23
2018-01-26T04:44:09.168Z,22.70
2018-01-26T04:44:32.959Z,21.30
2018-01-26T04:44:56.750Z,19.33
2018-01-26T04:45:20.501Z,18.85
2018-01-26T04:45:43.993Z,18.27
2018-01-26T04:46:07.723Z,19.85
2018-01-26T04:46:31.463Z,19.83
2018-01-26T04:46:54.952Z,21.73
2018-01-26T04:47:18.691Z,21.58
2018-01-26T04:47:42.440Z,20.73
2018-01-26T04:48:06.503Z,20.27
2018-01-26T04:48:30.251Z,19.70
2018-01-26T04:48:53.995Z,18.08
2018-01-26T04:49:17.721Z,17.67
2018-01-26T04:49:41.493Z,19.67
2018-01-26T04:50:05.279Z,23.02
2018-01-26T04:50:29.308Z,21.40
2018-01-26T04:50:53.324Z,20.08
2018-01-26T04:51:16.802Z,20.03
2018-01-26T04:51:40.527Z,18.15
2018-01-26T04:52:04.258Z,17.95
2018-01-26T04:52:28.343Z,19.60
2018-01-26T04:52:52.078Z,18.02
2018-01-26T04:53:15.574Z,20.25
2018-01-26T04:53:39.308Z,19.37
2018-01-26T04:54:03.114Z,22.33
2018-01-26T04:54:27.139Z,18.40
2018-01-26T04:54:50.611Z,18.40
2018-01-26T04:55:14.358Z,22.75
2018-01-26T04:55:38.095Z,25.70
2018-01-26T04:56:01.547Z,29.07
2018-01-26T04:56:25.285Z,21.45
2018-01-26T04:56:49.019Z,21.65
2018-01-26T04:57:13.093Z,21.95
2018-01-26T04:57:36.883Z,25.45
2018-01-26T04:58:00.898Z,22.30
2018-01-26T04:58:24.919Z,19.30
2018-01-26T04:58:48.967Z,19.17
2018-01-26T04:59:12.709Z,23.12
2018-01-26T04:59:36.142Z,24.87
2018-01-26T04:59:59.892Z,24.25
2018-01-26T05:00:23.635Z,21.70
2018-01-26T05:00:47.100Z,20.50
2018-01-26T05:01:10.838Z,19.17
2018-01-26T05:01:34.583Z,19.15
2018-01-26T05:01:58.035Z,22.40
2018-01-26T05:02:21.799Z,20.60
2018-01-26T05:02:45.728Z,20.98
2018-01-26T05:03:09.483Z,20.27
2018-01-26T05:03:32.564Z,20.67
2018-01-26T05:03:56.577Z,15.85
2018-01-26T05:04:20.013Z,15.70
2018-01-26T05:04:43.752Z,15.82
2018-01-26T05:05:07.509Z,19.45
2018-01-26T05:05:31.269Z,19.25
2018-01-26T05:05:55.032Z,18.42
2018-01-26T05:06:18.783Z,19.40
2018-01-26T05:06:42.520Z,20.20
2018-01-26T05:07:06.283Z,21.83